sensor_id;sensor_type;location;lat;lon;timestamp;temperature;humidity
73572;DHT22;61854;48.510;-2.770;2023-07-16T00:01:05;16.60;94.50
73572;DHT22;61854;48.510;-2.770;2023-07-16T00:03:30;16.50;94.80
73572;DHT22;61854;48.510;-2.770;2023-07-16T00:05:56;16.50;95.00
73572;DHT22;61854;48.510;-2.770;2023-07-16T00:08:22;16.50;95.00
73572;DHT22;61854;48.510;-2.770;2023-07-16T00:10:48;16.40;95.00
73572;DHT22;61854;48.510;-2.770;2023-07-16T00:13:13;16.40;95.20
73572;DHT22;61854;48.510;-2.770;2023-07-16T00:15:39;16.40;95.20
73572;DHT22;61854;48.510;-2.770;2023-07-16T00:18:04;16.30;95.50
73572;DHT22;61854;48.510;-2.770;2023-07-16T00:20:32;16.40;95.70
73572;DHT22;61854;48.510;-2.770;2023-07-16T00:22:58;16.30;95.60
73572;DHT22;61854;48.510;-2.770;2023-07-16T00:25:23;16.30;95.70
73572;DHT22;61854;48.510;-2.770;2023-07-16T00:27:49;16.40;95.60
73572;DHT22;61854;48.510;-2.770;2023-07-16T00:30:15;16.30;95.80
73572;DHT22;61854;48.510;-2.770;2023-07-16T00:32:40;16.40;95.60
73572;DHT22;61854;48.510;-2.770;2023-07-16T00:35:06;16.30;95.70
73572;DHT22;61854;48.510;-2.770;2023-07-16T00:37:33;16.30;95.60
73572;DHT22;61854;48.510;-2.770;2023-07-16T00:39:59;16.30;95.70
73572;DHT22;61854;48.510;-2.770;2023-07-16T00:42:25;16.30;95.90
73572;DHT22;61854;48.510;-2.770;2023-07-16T00:44:50;16.20;96.00
73572;DHT22;61854;48.510;-2.770;2023-07-16T00:47:16;16.20;96.10
73572;DHT22;61854;48.510;-2.770;2023-07-16T00:49:42;16.10;96.40
73572;DHT22;61854;48.510;-2.770;2023-07-16T00:52:14;16.20;96.30
73572;DHT22;61854;48.510;-2.770;2023-07-16T00:54:41;16.20;96.40
73572;DHT22;61854;48.510;-2.770;2023-07-16T00:57:07;16.20;96.50
73572;DHT22;61854;48.510;-2.770;2023-07-16T00:59:33;16.20;96.50
73572;DHT22;61854;48.510;-2.770;2023-07-16T01:01:59;16.40;96.30
73572;DHT22;61854;48.510;-2.770;2023-07-16T01:04:24;16.40;96.50
73572;DHT22;61854;48.510;-2.770;2023-07-16T01:06:55;16.40;96.40
73572;DHT22;61854;48.510;-2.770;2023-07-16T01:09:22;16.40;96.30
73572;DHT22;61854;48.510;-2.770;2023-07-16T01:11:48;16.50;96.10
73572;DHT22;61854;48.510;-2.770;2023-07-16T01:14:17;16.40;96.30
73572;DHT22;61854;48.510;-2.770;2023-07-16T01:16:43;16.40;96.50
73572;DHT22;61854;48.510;-2.770;2023-07-16T01:19:09;16.40;96.50
73572;DHT22;61854;48.510;-2.770;2023-07-16T01:21:48;16.40;96.60
73572;DHT22;61854;48.510;-2.770;2023-07-16T01:24:36;16.40;96.40
73572;DHT22;61854;48.510;-2.770;2023-07-16T01:27:30;16.40;96.60
73572;DHT22;61854;48.510;-2.770;2023-07-16T01:30:03;16.30;96.70
73572;DHT22;61854;48.510;-2.770;2023-07-16T01:32:33;16.30;96.90
73572;DHT22;61854;48.510;-2.770;2023-07-16T01:34:59;16.20;97.00
73572;DHT22;61854;48.510;-2.770;2023-07-16T01:37:25;16.30;97.00
73572;DHT22;61854;48.510;-2.770;2023-07-16T01:39:51;16.20;97.30
73572;DHT22;61854;48.510;-2.770;2023-07-16T01:42:17;16.30;97.20
73572;DHT22;61854;48.510;-2.770;2023-07-16T01:44:42;16.40;97.20
73572;DHT22;61854;48.510;-2.770;2023-07-16T01:47:19;16.30;97.30
73572;DHT22;61854;48.510;-2.770;2023-07-16T01:49:47;16.20;97.70
73572;DHT22;61854;48.510;-2.770;2023-07-16T01:52:13;16.40;97.60
73572;DHT22;61854;48.510;-2.770;2023-07-16T01:54:41;16.30;97.60
73572;DHT22;61854;48.510;-2.770;2023-07-16T01:57:07;16.30;97.50
73572;DHT22;61854;48.510;-2.770;2023-07-16T01:59:32;16.30;97.50
73572;DHT22;61854;48.510;-2.770;2023-07-16T02:01:58;16.30;97.30
73572;DHT22;61854;48.510;-2.770;2023-07-16T02:04:23;16.30;97.50
73572;DHT22;61854;48.510;-2.770;2023-07-16T02:06:49;16.20;97.80
73572;DHT22;61854;48.510;-2.770;2023-07-16T02:09:15;16.20;97.70
73572;DHT22;61854;48.510;-2.770;2023-07-16T02:11:40;16.10;98.10
73572;DHT22;61854;48.510;-2.770;2023-07-16T02:14:06;16.10;97.90
73572;DHT22;61854;48.510;-2.770;2023-07-16T02:16:31;16.10;97.80
73572;DHT22;61854;48.510;-2.770;2023-07-16T02:18:57;16.20;97.90
73572;DHT22;61854;48.510;-2.770;2023-07-16T02:21:23;16.10;98.00
73572;DHT22;61854;48.510;-2.770;2023-07-16T02:23:48;16.10;98.00
73572;DHT22;61854;48.510;-2.770;2023-07-16T02:26:14;16.20;97.90
73572;DHT22;61854;48.510;-2.770;2023-07-16T02:28:39;16.20;97.80
73572;DHT22;61854;48.510;-2.770;2023-07-16T02:31:05;16.20;97.70
73572;DHT22;61854;48.510;-2.770;2023-07-16T02:33:31;16.30;97.80
73572;DHT22;61854;48.510;-2.770;2023-07-16T02:35:56;16.30;97.70
73572;DHT22;61854;48.510;-2.770;2023-07-16T02:38:22;16.30;97.70
73572;DHT22;61854;48.510;-2.770;2023-07-16T02:40:48;16.30;97.50
73572;DHT22;61854;48.510;-2.770;2023-07-16T02:43:14;16.40;97.30
73572;DHT22;61854;48.510;-2.770;2023-07-16T02:45:40;16.40;97.40
73572;DHT22;61854;48.510;-2.770;2023-07-16T02:48:07;16.40;97.70
73572;DHT22;61854;48.510;-2.770;2023-07-16T02:50:36;16.30;97.70
73572;DHT22;61854;48.510;-2.770;2023-07-16T02:53:06;16.30;97.70
73572;DHT22;61854;48.510;-2.770;2023-07-16T02:55:32;16.40;97.60
73572;DHT22;61854;48.510;-2.770;2023-07-16T02:57:58;16.50;97.50
73572;DHT22;61854;48.510;-2.770;2023-07-16T03:00:24;16.40;97.60
73572;DHT22;61854;48.510;-2.770;2023-07-16T03:02:49;16.50;97.40
73572;DHT22;61854;48.510;-2.770;2023-07-16T03:05:18;16.50;98.10
73572;DHT22;61854;48.510;-2.770;2023-07-16T03:07:43;16.30;98.10
73572;DHT22;61854;48.510;-2.770;2023-07-16T03:10:09;16.40;98.20
73572;DHT22;61854;48.510;-2.770;2023-07-16T03:12:35;16.40;98.30
73572;DHT22;61854;48.510;-2.770;2023-07-16T03:15:00;16.30;98.50
73572;DHT22;61854;48.510;-2.770;2023-07-16T03:17:26;16.40;98.50
73572;DHT22;61854;48.510;-2.770;2023-07-16T03:19:52;16.40;98.40
73572;DHT22;61854;48.510;-2.770;2023-07-16T03:22:17;16.40;98.50
73572;DHT22;61854;48.510;-2.770;2023-07-16T03:24:43;16.30;98.90
73572;DHT22;61854;48.510;-2.770;2023-07-16T03:27:08;16.30;99.20
73572;DHT22;61854;48.510;-2.770;2023-07-16T03:29:34;16.30;99.90
73572;DHT22;61854;48.510;-2.770;2023-07-16T03:32:00;16.20;99.80
73572;DHT22;61854;48.510;-2.770;2023-07-16T03:34:25;16.30;99.90
73572;DHT22;61854;48.510;-2.770;2023-07-16T03:36:51;16.20;99.90
73572;DHT22;61854;48.510;-2.770;2023-07-16T03:39:17;16.10;99.90
73572;DHT22;61854;48.510;-2.770;2023-07-16T03:41:43;16.10;99.90
73572;DHT22;61854;48.510;-2.770;2023-07-16T03:44:08;16.10;99.90
73572;DHT22;61854;48.510;-2.770;2023-07-16T03:46:34;16.00;99.90
73572;DHT22;61854;48.510;-2.770;2023-07-16T03:48:59;16.00;99.90
73572;DHT22;61854;48.510;-2.770;2023-07-16T03:51:25;16.00;99.90
73572;DHT22;61854;48.510;-2.770;2023-07-16T03:53:51;16.00;99.90
73572;DHT22;61854;48.510;-2.770;2023-07-16T03:56:16;16.00;99.90
73572;DHT22;61854;48.510;-2.770;2023-07-16T03:58:42;16.00;99.90
73572;DHT22;61854;48.510;-2.770;2023-07-16T04:01:07;16.00;99.90
73572;DHT22;61854;48.510;-2.770;2023-07-16T04:03:33;16.00;99.90
73572;DHT22;61854;48.510;-2.770;2023-07-16T04:06:03;16.10;99.90
73572;DHT22;61854;48.510;-2.770;2023-07-16T04:08:29;16.10;99.90
73572;DHT22;61854;48.510;-2.770;2023-07-16T04:10:55;16.00;99.90
73572;DHT22;61854;48.510;-2.770;2023-07-16T04:13:20;16.00;99.90
73572;DHT22;61854;48.510;-2.770;2023-07-16T04:15:46;16.00;99.90
73572;DHT22;61854;48.510;-2.770;2023-07-16T04:18:12;15.90;99.90
73572;DHT22;61854;48.510;-2.770;2023-07-16T04:20:37;15.90;99.90
73572;DHT22;61854;48.510;-2.770;2023-07-16T04:23:03;15.80;99.90
73572;DHT22;61854;48.510;-2.770;2023-07-16T04:25:28;15.80;99.90
73572;DHT22;61854;48.510;-2.770;2023-07-16T04:27:55;15.90;99.90
73572;DHT22;61854;48.510;-2.770;2023-07-16T04:30:21;15.80;99.90
73572;DHT22;61854;48.510;-2.770;2023-07-16T04:32:47;15.80;99.90
73572;DHT22;61854;48.510;-2.770;2023-07-16T04:35:12;15.80;99.90
73572;DHT22;61854;48.510;-2.770;2023-07-16T04:37:38;15.70;99.90
73572;DHT22;61854;48.510;-2.770;2023-07-16T04:40:04;15.70;99.90
73572;DHT22;61854;48.510;-2.770;2023-07-16T04:42:30;15.80;99.90
73572;DHT22;61854;48.510;-2.770;2023-07-16T04:44:56;15.70;99.90
73572;DHT22;61854;48.510;-2.770;2023-07-16T04:47:21;15.70;99.90
73572;DHT22;61854;48.510;-2.770;2023-07-16T04:49:47;15.70;99.90
73572;DHT22;61854;48.510;-2.770;2023-07-16T04:52:13;15.70;99.90
73572;DHT22;61854;48.510;-2.770;2023-07-16T04:54:41;15.70;99.90
73572;DHT22;61854;48.510;-2.770;2023-07-16T04:57:07;15.70;99.90
73572;DHT22;61854;48.510;-2.770;2023-07-16T04:59:34;15.60;99.90
73572;DHT22;61854;48.510;-2.770;2023-07-16T05:01:59;15.70;99.90
73572;DHT22;61854;48.510;-2.770;2023-07-16T05:04:25;15.70;99.90
73572;DHT22;61854;48.510;-2.770;2023-07-16T05:06:52;15.70;99.90
73572;DHT22;61854;48.510;-2.770;2023-07-16T05:09:18;15.80;99.90
73572;DHT22;61854;48.510;-2.770;2023-07-16T05:11:43;15.80;99.90
73572;DHT22;61854;48.510;-2.770;2023-07-16T05:14:09;15.70;99.90
73572;DHT22;61854;48.510;-2.770;2023-07-16T05:16:34;15.70;99.90
73572;DHT22;61854;48.510;-2.770;2023-07-16T05:19:00;15.70;99.90
73572;DHT22;61854;48.510;-2.770;2023-07-16T05:21:25;15.80;99.90
73572;DHT22;61854;48.510;-2.770;2023-07-16T05:23:51;15.80;99.90
73572;DHT22;61854;48.510;-2.770;2023-07-16T05:26:17;15.70;99.90
73572;DHT22;61854;48.510;-2.770;2023-07-16T05:28:42;15.70;99.90
73572;DHT22;61854;48.510;-2.770;2023-07-16T05:31:08;15.80;99.90
73572;DHT22;61854;48.510;-2.770;2023-07-16T05:33:33;15.80;99.90
73572;DHT22;61854;48.510;-2.770;2023-07-16T05:35:59;15.80;99.90
73572;DHT22;61854;48.510;-2.770;2023-07-16T05:38:25;15.90;99.40
73572;DHT22;61854;48.510;-2.770;2023-07-16T05:40:50;15.90;99.90
73572;DHT22;61854;48.510;-2.770;2023-07-16T05:43:16;15.90;99.80
73572;DHT22;61854;48.510;-2.770;2023-07-16T05:45:42;16.00;99.70
73572;DHT22;61854;48.510;-2.770;2023-07-16T05:48:07;15.90;99.40
73572;DHT22;61854;48.510;-2.770;2023-07-16T05:50:33;15.90;99.40
73572;DHT22;61854;48.510;-2.770;2023-07-16T05:52:59;16.00;99.70
73572;DHT22;61854;48.510;-2.770;2023-07-16T05:55:24;16.00;99.00
73572;DHT22;61854;48.510;-2.770;2023-07-16T05:57:50;16.10;99.30
73572;DHT22;61854;48.510;-2.770;2023-07-16T06:00:16;16.00;99.20
73572;DHT22;61854;48.510;-2.770;2023-07-16T06:02:42;16.10;99.10
73572;DHT22;61854;48.510;-2.770;2023-07-16T06:05:08;16.10;98.70
73572;DHT22;61854;48.510;-2.770;2023-07-16T06:07:34;16.10;98.50
73572;DHT22;61854;48.510;-2.770;2023-07-16T06:10:00;16.20;98.60
73572;DHT22;61854;48.510;-2.770;2023-07-16T06:12:26;16.20;98.50
73572;DHT22;61854;48.510;-2.770;2023-07-16T06:14:51;16.10;98.40
73572;DHT22;61854;48.510;-2.770;2023-07-16T06:17:17;16.10;98.70
73572;DHT22;61854;48.510;-2.770;2023-07-16T06:19:43;16.10;99.40
73572;DHT22;61854;48.510;-2.770;2023-07-16T06:22:08;16.00;99.00
73572;DHT22;61854;48.510;-2.770;2023-07-16T06:24:34;16.10;99.00
73572;DHT22;61854;48.510;-2.770;2023-07-16T06:27:00;16.10;99.00
73572;DHT22;61854;48.510;-2.770;2023-07-16T06:29:26;16.10;99.00
73572;DHT22;61854;48.510;-2.770;2023-07-16T06:31:58;16.20;98.80
73572;DHT22;61854;48.510;-2.770;2023-07-16T06:34:25;16.50;98.20
73572;DHT22;61854;48.510;-2.770;2023-07-16T06:36:50;16.50;97.40
73572;DHT22;61854;48.510;-2.770;2023-07-16T06:39:16;16.70;97.80
73572;DHT22;61854;48.510;-2.770;2023-07-16T06:41:42;16.80;96.80
73572;DHT22;61854;48.510;-2.770;2023-07-16T06:44:08;16.70;96.30
73572;DHT22;61854;48.510;-2.770;2023-07-16T06:46:33;16.80;96.30
73572;DHT22;61854;48.510;-2.770;2023-07-16T06:48:59;16.80;96.00
73572;DHT22;61854;48.510;-2.770;2023-07-16T06:51:24;16.80;96.20
73572;DHT22;61854;48.510;-2.770;2023-07-16T06:53:50;16.80;96.30
73572;DHT22;61854;48.510;-2.770;2023-07-16T06:56:16;16.80;96.10
73572;DHT22;61854;48.510;-2.770;2023-07-16T06:58:41;16.80;95.90
73572;DHT22;61854;48.510;-2.770;2023-07-16T07:01:08;16.90;96.30
73572;DHT22;61854;48.510;-2.770;2023-07-16T07:03:34;16.90;96.20
73572;DHT22;61854;48.510;-2.770;2023-07-16T07:06:03;17.10;96.20
73572;DHT22;61854;48.510;-2.770;2023-07-16T07:08:31;17.20;95.60
73572;DHT22;61854;48.510;-2.770;2023-07-16T07:10:57;17.20;95.40
73572;DHT22;61854;48.510;-2.770;2023-07-16T07:13:24;17.30;94.40
73572;DHT22;61854;48.510;-2.770;2023-07-16T07:15:49;17.20;94.60
73572;DHT22;61854;48.510;-2.770;2023-07-16T07:18:15;17.40;94.70
73572;DHT22;61854;48.510;-2.770;2023-07-16T07:20:41;17.60;94.60
73572;DHT22;61854;48.510;-2.770;2023-07-16T07:23:06;17.70;93.00
73572;DHT22;61854;48.510;-2.770;2023-07-16T07:25:32;17.70;93.60
73572;DHT22;61854;48.510;-2.770;2023-07-16T07:27:59;17.80;93.00
73572;DHT22;61854;48.510;-2.770;2023-07-16T07:30:25;18.00;93.20
73572;DHT22;61854;48.510;-2.770;2023-07-16T07:32:51;17.90;92.70
73572;DHT22;61854;48.510;-2.770;2023-07-16T07:35:16;17.90;92.50
73572;DHT22;61854;48.510;-2.770;2023-07-16T07:37:42;17.80;92.50
73572;DHT22;61854;48.510;-2.770;2023-07-16T07:40:08;17.80;92.80
73572;DHT22;61854;48.510;-2.770;2023-07-16T07:42:33;17.80;92.70
73572;DHT22;61854;48.510;-2.770;2023-07-16T07:44:59;17.70;93.60
73572;DHT22;61854;48.510;-2.770;2023-07-16T07:47:25;17.80;92.90
73572;DHT22;61854;48.510;-2.770;2023-07-16T07:49:52;17.80;93.00
73572;DHT22;61854;48.510;-2.770;2023-07-16T07:52:18;17.80;92.50
73572;DHT22;61854;48.510;-2.770;2023-07-16T07:54:44;17.80;92.00
73572;DHT22;61854;48.510;-2.770;2023-07-16T07:57:09;17.90;92.10
73572;DHT22;61854;48.510;-2.770;2023-07-16T07:59:35;17.90;91.90
73572;DHT22;61854;48.510;-2.770;2023-07-16T08:02:01;17.90;92.20
73572;DHT22;61854;48.510;-2.770;2023-07-16T08:04:29;18.00;92.00
73572;DHT22;61854;48.510;-2.770;2023-07-16T08:06:56;17.90;91.90
73572;DHT22;61854;48.510;-2.770;2023-07-16T08:09:21;18.20;91.60
73572;DHT22;61854;48.510;-2.770;2023-07-16T08:11:47;18.20;91.50
73572;DHT22;61854;48.510;-2.770;2023-07-16T08:14:12;18.00;91.80
73572;DHT22;61854;48.510;-2.770;2023-07-16T08:16:38;18.00;91.80
73572;DHT22;61854;48.510;-2.770;2023-07-16T08:19:04;18.00;92.00
73572;DHT22;61854;48.510;-2.770;2023-07-16T08:21:29;18.00;91.50
73572;DHT22;61854;48.510;-2.770;2023-07-16T08:23:55;18.10;91.40
73572;DHT22;61854;48.510;-2.770;2023-07-16T08:26:20;17.90;91.50
73572;DHT22;61854;48.510;-2.770;2023-07-16T08:28:46;18.10;91.60
73572;DHT22;61854;48.510;-2.770;2023-07-16T08:31:12;18.20;90.80
73572;DHT22;61854;48.510;-2.770;2023-07-16T08:33:40;18.20;91.50
73572;DHT22;61854;48.510;-2.770;2023-07-16T08:36:06;18.30;91.20
73572;DHT22;61854;48.510;-2.770;2023-07-16T08:38:32;18.20;91.00
73572;DHT22;61854;48.510;-2.770;2023-07-16T08:41:00;18.10;90.70
73572;DHT22;61854;48.510;-2.770;2023-07-16T08:43:26;17.90;91.50
73572;DHT22;61854;48.510;-2.770;2023-07-16T08:45:52;18.10;91.00
73572;DHT22;61854;48.510;-2.770;2023-07-16T08:48:18;18.20;90.60
73572;DHT22;61854;48.510;-2.770;2023-07-16T08:50:47;18.10;90.50
73572;DHT22;61854;48.510;-2.770;2023-07-16T08:53:14;18.10;90.10
73572;DHT22;61854;48.510;-2.770;2023-07-16T08:55:40;18.10;90.30
73572;DHT22;61854;48.510;-2.770;2023-07-16T08:58:06;18.20;84.40
73572;DHT22;61854;48.510;-2.770;2023-07-16T09:00:32;18.30;84.70
73572;DHT22;61854;48.510;-2.770;2023-07-16T09:02:58;18.40;83.00
73572;DHT22;61854;48.510;-2.770;2023-07-16T09:05:25;18.30;86.40
73572;DHT22;61854;48.510;-2.770;2023-07-16T09:07:50;18.30;86.00
73572;DHT22;61854;48.510;-2.770;2023-07-16T09:10:16;18.50;85.70
73572;DHT22;61854;48.510;-2.770;2023-07-16T09:12:45;18.50;86.70
73572;DHT22;61854;48.510;-2.770;2023-07-16T09:15:13;18.70;85.00
73572;DHT22;61854;48.510;-2.770;2023-07-16T09:17:39;18.60;85.00
73572;DHT22;61854;48.510;-2.770;2023-07-16T09:20:05;18.70;82.70
73572;DHT22;61854;48.510;-2.770;2023-07-16T09:22:33;18.60;83.70
73572;DHT22;61854;48.510;-2.770;2023-07-16T09:25:00;18.70;83.20
73572;DHT22;61854;48.510;-2.770;2023-07-16T09:27:31;18.70;82.30
73572;DHT22;61854;48.510;-2.770;2023-07-16T09:29:57;18.80;82.60
73572;DHT22;61854;48.510;-2.770;2023-07-16T09:32:38;18.80;81.80
73572;DHT22;61854;48.510;-2.770;2023-07-16T09:35:16;19.00;82.10
73572;DHT22;61854;48.510;-2.770;2023-07-16T09:37:43;18.90;81.90
73572;DHT22;61854;48.510;-2.770;2023-07-16T09:40:12;19.10;81.40
73572;DHT22;61854;48.510;-2.770;2023-07-16T09:42:40;19.10;81.00
73572;DHT22;61854;48.510;-2.770;2023-07-16T09:45:07;19.30;80.70
73572;DHT22;61854;48.510;-2.770;2023-07-16T09:47:35;19.30;78.90
73572;DHT22;61854;48.510;-2.770;2023-07-16T09:50:04;19.30;78.40
73572;DHT22;61854;48.510;-2.770;2023-07-16T09:52:31;19.50;77.50
73572;DHT22;61854;48.510;-2.770;2023-07-16T09:55:01;19.70;77.00
73572;DHT22;61854;48.510;-2.770;2023-07-16T09:57:30;19.50;78.90
73572;DHT22;61854;48.510;-2.770;2023-07-16T09:59:58;19.80;76.10
73572;DHT22;61854;48.510;-2.770;2023-07-16T10:02:26;19.70;74.70
73572;DHT22;61854;48.510;-2.770;2023-07-16T10:04:51;19.70;75.30
73572;DHT22;61854;48.510;-2.770;2023-07-16T10:07:24;19.60;76.40
73572;DHT22;61854;48.510;-2.770;2023-07-16T10:09:56;19.90;75.40
73572;DHT22;61854;48.510;-2.770;2023-07-16T10:12:26;19.50;75.00
73572;DHT22;61854;48.510;-2.770;2023-07-16T10:14:53;19.60;75.10
73572;DHT22;61854;48.510;-2.770;2023-07-16T10:17:26;19.80;73.60
73572;DHT22;61854;48.510;-2.770;2023-07-16T10:20:08;19.80;74.60
73572;DHT22;61854;48.510;-2.770;2023-07-16T10:22:38;19.80;74.80
73572;DHT22;61854;48.510;-2.770;2023-07-16T10:27:43;19.90;73.80
73572;DHT22;61854;48.510;-2.770;2023-07-16T10:30:12;20.00;74.30
73572;DHT22;61854;48.510;-2.770;2023-07-16T10:32:38;19.80;75.70
73572;DHT22;61854;48.510;-2.770;2023-07-16T10:35:05;19.90;74.70
73572;DHT22;61854;48.510;-2.770;2023-07-16T10:37:32;20.10;73.30
73572;DHT22;61854;48.510;-2.770;2023-07-16T10:39:59;19.80;75.20
73572;DHT22;61854;48.510;-2.770;2023-07-16T10:42:26;20.20;71.90
73572;DHT22;61854;48.510;-2.770;2023-07-16T10:45:03;20.50;69.70
73572;DHT22;61854;48.510;-2.770;2023-07-16T10:47:34;20.60;69.80
73572;DHT22;61854;48.510;-2.770;2023-07-16T10:50:00;20.80;68.00
73572;DHT22;61854;48.510;-2.770;2023-07-16T10:52:28;20.90;67.70
73572;DHT22;61854;48.510;-2.770;2023-07-16T10:54:53;21.00;68.10
73572;DHT22;61854;48.510;-2.770;2023-07-16T10:57:21;21.00;66.80
73572;DHT22;61854;48.510;-2.770;2023-07-16T10:59:47;21.30;66.60
73572;DHT22;61854;48.510;-2.770;2023-07-16T11:02:15;21.50;65.30
73572;DHT22;61854;48.510;-2.770;2023-07-16T11:04:43;21.80;65.00
73572;DHT22;61854;48.510;-2.770;2023-07-16T11:07:10;21.90;62.10
73572;DHT22;61854;48.510;-2.770;2023-07-16T11:09:49;21.70;61.60
73572;DHT22;61854;48.510;-2.770;2023-07-16T11:12:17;21.70;61.20
73572;DHT22;61854;48.510;-2.770;2023-07-16T11:14:47;21.70;63.10
73572;DHT22;61854;48.510;-2.770;2023-07-16T11:17:13;21.50;64.10
73572;DHT22;61854;48.510;-2.770;2023-07-16T11:19:40;20.50;63.90
73572;DHT22;61854;48.510;-2.770;2023-07-16T11:22:08;19.90;68.00
73572;DHT22;61854;48.510;-2.770;2023-07-16T11:24:42;19.20;70.90
73572;DHT22;61854;48.510;-2.770;2023-07-16T11:27:16;18.90;73.20
73572;DHT22;61854;48.510;-2.770;2023-07-16T11:29:55;19.00;72.20
73572;DHT22;61854;48.510;-2.770;2023-07-16T11:32:37;18.70;84.70
73572;DHT22;61854;48.510;-2.770;2023-07-16T11:35:04;18.10;87.20
73572;DHT22;61854;48.510;-2.770;2023-07-16T11:37:32;17.60;87.30
73572;DHT22;61854;48.510;-2.770;2023-07-16T11:39:59;17.30;90.80
73572;DHT22;61854;48.510;-2.770;2023-07-16T11:42:35;17.20;91.10
73572;DHT22;61854;48.510;-2.770;2023-07-16T11:45:02;17.00;92.40
73572;DHT22;61854;48.510;-2.770;2023-07-16T11:47:31;16.90;92.40
73572;DHT22;61854;48.510;-2.770;2023-07-16T11:49:57;16.90;93.10
73572;DHT22;61854;48.510;-2.770;2023-07-16T11:52:27;16.80;93.10
73572;DHT22;61854;48.510;-2.770;2023-07-16T11:54:56;16.90;93.30
73572;DHT22;61854;48.510;-2.770;2023-07-16T11:57:21;17.10;92.50
73572;DHT22;61854;48.510;-2.770;2023-07-16T11:59:47;17.30;91.70
73572;DHT22;61854;48.510;-2.770;2023-07-16T12:02:13;17.50;92.70
73572;DHT22;61854;48.510;-2.770;2023-07-16T12:04:39;17.60;90.30
73572;DHT22;61854;48.510;-2.770;2023-07-16T12:07:04;17.80;87.10
73572;DHT22;61854;48.510;-2.770;2023-07-16T12:09:30;17.80;88.00
73572;DHT22;61854;48.510;-2.770;2023-07-16T12:11:56;17.80;85.80
73572;DHT22;61854;48.510;-2.770;2023-07-16T12:14:22;17.80;85.80
73572;DHT22;61854;48.510;-2.770;2023-07-16T12:16:48;17.90;84.10
73572;DHT22;61854;48.510;-2.770;2023-07-16T12:19:13;18.00;82.80
73572;DHT22;61854;48.510;-2.770;2023-07-16T12:21:39;18.20;82.10
73572;DHT22;61854;48.510;-2.770;2023-07-16T12:24:05;18.40;80.80
73572;DHT22;61854;48.510;-2.770;2023-07-16T12:26:31;18.60;79.00
73572;DHT22;61854;48.510;-2.770;2023-07-16T12:28:56;18.80;78.70
73572;DHT22;61854;48.510;-2.770;2023-07-16T12:31:22;19.00;80.60
73572;DHT22;61854;48.510;-2.770;2023-07-16T12:33:48;19.20;77.70
73572;DHT22;61854;48.510;-2.770;2023-07-16T12:36:14;19.20;74.80
73572;DHT22;61854;48.510;-2.770;2023-07-16T12:38:41;19.20;74.90
73572;DHT22;61854;48.510;-2.770;2023-07-16T12:41:07;19.30;75.00
73572;DHT22;61854;48.510;-2.770;2023-07-16T12:43:33;19.20;75.00
73572;DHT22;61854;48.510;-2.770;2023-07-16T12:46:01;19.50;75.70
73572;DHT22;61854;48.510;-2.770;2023-07-16T12:48:28;19.70;73.00
73572;DHT22;61854;48.510;-2.770;2023-07-16T12:50:54;19.70;74.20
73572;DHT22;61854;48.510;-2.770;2023-07-16T12:53:20;19.90;72.30
73572;DHT22;61854;48.510;-2.770;2023-07-16T12:55:45;20.20;73.00
73572;DHT22;61854;48.510;-2.770;2023-07-16T12:58:11;20.50;72.00
73572;DHT22;61854;48.510;-2.770;2023-07-16T13:00:36;20.80;71.30
73572;DHT22;61854;48.510;-2.770;2023-07-16T13:03:02;20.70;69.70
73572;DHT22;61854;48.510;-2.770;2023-07-16T13:05:28;20.50;70.00
73572;DHT22;61854;48.510;-2.770;2023-07-16T13:07:53;20.70;71.50
73572;DHT22;61854;48.510;-2.770;2023-07-16T13:10:19;21.10;68.40
73572;DHT22;61854;48.510;-2.770;2023-07-16T13:12:45;21.00;66.50
73572;DHT22;61854;48.510;-2.770;2023-07-16T13:15:10;21.10;65.80
73572;DHT22;61854;48.510;-2.770;2023-07-16T13:17:36;21.20;65.90
73572;DHT22;61854;48.510;-2.770;2023-07-16T13:20:03;21.20;65.70
73572;DHT22;61854;48.510;-2.770;2023-07-16T13:22:28;21.00;66.60
73572;DHT22;61854;48.510;-2.770;2023-07-16T13:24:54;20.80;66.40
73572;DHT22;61854;48.510;-2.770;2023-07-16T13:27:23;20.60;66.20
73572;DHT22;61854;48.510;-2.770;2023-07-16T13:29:49;20.50;65.50
73572;DHT22;61854;48.510;-2.770;2023-07-16T13:32:15;20.30;67.30
73572;DHT22;61854;48.510;-2.770;2023-07-16T13:34:41;20.20;67.20
73572;DHT22;61854;48.510;-2.770;2023-07-16T13:37:07;20.20;68.80
73572;DHT22;61854;48.510;-2.770;2023-07-16T13:39:32;20.00;68.60
73572;DHT22;61854;48.510;-2.770;2023-07-16T13:41:58;20.00;68.40
73572;DHT22;61854;48.510;-2.770;2023-07-16T13:44:24;20.10;69.20
73572;DHT22;61854;48.510;-2.770;2023-07-16T13:46:49;20.40;69.60
73572;DHT22;61854;48.510;-2.770;2023-07-16T13:49:15;20.50;69.80
73572;DHT22;61854;48.510;-2.770;2023-07-16T13:51:40;20.70;69.10
73572;DHT22;61854;48.510;-2.770;2023-07-16T13:54:06;20.70;69.70
73572;DHT22;61854;48.510;-2.770;2023-07-16T13:56:32;20.60;69.70
73572;DHT22;61854;48.510;-2.770;2023-07-16T13:58:57;20.80;68.00
73572;DHT22;61854;48.510;-2.770;2023-07-16T14:01:24;21.10;68.00
73572;DHT22;61854;48.510;-2.770;2023-07-16T14:03:50;21.20;66.20
73572;DHT22;61854;48.510;-2.770;2023-07-16T14:06:15;21.10;66.70
73572;DHT22;61854;48.510;-2.770;2023-07-16T14:08:41;21.20;67.20
73572;DHT22;61854;48.510;-2.770;2023-07-16T14:11:07;21.00;66.90
73572;DHT22;61854;48.510;-2.770;2023-07-16T14:13:32;21.00;64.10
73572;DHT22;61854;48.510;-2.770;2023-07-16T14:15:58;21.00;56.50
73572;DHT22;61854;48.510;-2.770;2023-07-16T14:18:23;21.00;56.70
73572;DHT22;61854;48.510;-2.770;2023-07-16T14:20:49;21.00;58.10
73572;DHT22;61854;48.510;-2.770;2023-07-16T14:23:15;20.90;59.10
73572;DHT22;61854;48.510;-2.770;2023-07-16T14:25:40;20.70;61.10
73572;DHT22;61854;48.510;-2.770;2023-07-16T14:28:06;20.70;61.90
73572;DHT22;61854;48.510;-2.770;2023-07-16T14:30:31;20.50;61.20
73572;DHT22;61854;48.510;-2.770;2023-07-16T14:32:57;20.60;60.90
73572;DHT22;61854;48.510;-2.770;2023-07-16T14:35:25;20.70;61.90
73572;DHT22;61854;48.510;-2.770;2023-07-16T14:37:50;20.90;60.60
73572;DHT22;61854;48.510;-2.770;2023-07-16T14:40:16;20.70;61.30
73572;DHT22;61854;48.510;-2.770;2023-07-16T14:42:43;20.70;61.90
73572;DHT22;61854;48.510;-2.770;2023-07-16T14:45:09;20.90;62.00
73572;DHT22;61854;48.510;-2.770;2023-07-16T14:47:35;21.00;59.00
73572;DHT22;61854;48.510;-2.770;2023-07-16T14:50:00;21.10;57.50
73572;DHT22;61854;48.510;-2.770;2023-07-16T14:52:26;21.60;54.60
73572;DHT22;61854;48.510;-2.770;2023-07-16T14:54:52;21.90;53.90
73572;DHT22;61854;48.510;-2.770;2023-07-16T14:57:17;21.70;51.90
73572;DHT22;61854;48.510;-2.770;2023-07-16T14:59:43;21.80;50.00
73572;DHT22;61854;48.510;-2.770;2023-07-16T15:02:09;21.80;49.80
73572;DHT22;61854;48.510;-2.770;2023-07-16T15:04:34;21.80;51.00
73572;DHT22;61854;48.510;-2.770;2023-07-16T15:07:00;21.70;51.30
73572;DHT22;61854;48.510;-2.770;2023-07-16T15:09:26;21.90;50.50
73572;DHT22;61854;48.510;-2.770;2023-07-16T15:11:52;21.80;50.00
73572;DHT22;61854;48.510;-2.770;2023-07-16T15:14:18;21.60;51.20